DLH7KK EDDM-EDDL
Flight info
| Callsign | DLH7KK |
|---|---|
| Flight time | 0h 48m |
| Altitude | 32000 |
| Route | GIVMI Y101 INBED DCT REKDI DCT LOHRE Z850 ARPEG/N0378F240 Z850 ADEMI T854 DOMUX |
| Aircraft | A321/M-SDE3FGHIRWY/LB1 |
Departure
| Time | 2026-05-04 19:36 |
|---|---|
| Airport | Munich Airport (EDDM) |
Arrival
| Time | 2026-05-04 20:24 |
|---|---|
| Airport | Düsseldorf Airport (EDDL) |
| Time | Latitude | Longitude | Altitude | Speed | Heading |
|---|---|---|---|---|---|
| 2026-05-04 19:01 | 48.35247 | 11.79767 | 1467 ft | 0 kts | 84° |
| 2026-05-04 19:23 | 48.35247 | 11.79766 | 1467 ft | 2 kts | 85° |
| 2026-05-04 19:23 | 48.35245 | 11.79739 | 1462 ft | 3 kts | 85° |
| 2026-05-04 19:23 | 48.35244 | 11.79710 | 1467 ft | 3 kts | 85° |
| 2026-05-04 19:24 | 48.35242 | 11.79683 | 1458 ft | 3 kts | 85° |
| 2026-05-04 19:24 | 48.35238 | 11.79656 | 1459 ft | 3 kts | 56° |
| 2026-05-04 19:24 | 48.35225 | 11.79637 | 1458 ft | 2 kts | 17° |
| 2026-05-04 19:24 | 48.35216 | 11.79634 | 1459 ft | 0 kts | 353° |
| 2026-05-04 19:27 | 48.35230 | 11.79632 | 1462 ft | 6 kts | 354° |
| 2026-05-04 19:27 | 48.35276 | 11.79624 | 1463 ft | 0 kts | 353° |
| 2026-05-04 19:28 | 48.35277 | 11.79624 | 1463 ft | 1 kts | 353° |
| 2026-05-04 19:28 | 48.35291 | 11.79616 | 1465 ft | 5 kts | 333° |
| 2026-05-04 19:28 | 48.35343 | 11.79558 | 1464 ft | 11 kts | 325° |
| 2026-05-04 19:29 | 48.35425 | 11.79528 | 1459 ft | 13 kts | 353° |
| 2026-05-04 19:29 | 48.35533 | 11.79509 | 1460 ft | 19 kts | 353° |
| 2026-05-04 19:29 | 48.35656 | 11.79487 | 1467 ft | 18 kts | 353° |
| 2026-05-04 19:29 | 48.35769 | 11.79468 | 1467 ft | 14 kts | 353° |
| 2026-05-04 19:30 | 48.35854 | 11.79455 | 1462 ft | 11 kts | 359° |
| 2026-05-04 19:30 | 48.35910 | 11.79485 | 1461 ft | 8 kts | 33° |
| 2026-05-04 19:30 | 48.35963 | 11.79504 | 1459 ft | 7 kts | 353° |
| 2026-05-04 19:30 | 48.35992 | 11.79499 | 1465 ft | 1 kts | 353° |
| 2026-05-04 19:31 | 48.36014 | 11.79495 | 1458 ft | 5 kts | 354° |
| 2026-05-04 19:31 | 48.36055 | 11.79488 | 1467 ft | 7 kts | 353° |
| 2026-05-04 19:31 | 48.36104 | 11.79480 | 1467 ft | 7 kts | 353° |
| 2026-05-04 19:31 | 48.36161 | 11.79470 | 1468 ft | 9 kts | 355° |
| 2026-05-04 19:32 | 48.36214 | 11.79519 | 1466 ft | 10 kts | 63° |
| 2026-05-04 19:32 | 48.36226 | 11.79633 | 1463 ft | 12 kts | 84° |
| 2026-05-04 19:32 | 48.36238 | 11.79784 | 1465 ft | 17 kts | 83° |
| 2026-05-04 19:32 | 48.36252 | 11.79973 | 1462 ft | 20 kts | 83° |
| 2026-05-04 19:33 | 48.36269 | 11.80193 | 1468 ft | 22 kts | 83° |
| 2026-05-04 19:33 | 48.36287 | 11.80423 | 1468 ft | 23 kts | 83° |
| 2026-05-04 19:33 | 48.36306 | 11.80663 | 1467 ft | 23 kts | 83° |
| 2026-05-04 19:33 | 48.36322 | 11.80881 | 1467 ft | 16 kts | 83° |
| 2026-05-04 19:34 | 48.36335 | 11.81045 | 1467 ft | 16 kts | 83° |
| 2026-05-04 19:34 | 48.36345 | 11.81172 | 1467 ft | 10 kts | 81° |
| 2026-05-04 19:34 | 48.36395 | 11.81223 | 1460 ft | 10 kts | 343° |
| 2026-05-04 19:34 | 48.36432 | 11.81139 | 1463 ft | 10 kts | 293° |
| 2026-05-04 19:35 | 48.36463 | 11.81033 | 1463 ft | 13 kts | 294° |
| 2026-05-04 19:35 | 48.36512 | 11.80862 | 1462 ft | 21 kts | 293° |
| 2026-05-04 19:35 | 48.36564 | 11.80641 | 1464 ft | 23 kts | 283° |
| 2026-05-04 19:35 | 48.36547 | 11.80279 | 1464 ft | 64 kts | 264° |
| 2026-05-04 19:36 | 48.36465 | 11.79202 | 1465 ft | 143 kts | 264° |
| 2026-05-04 19:36 | 48.36345 | 11.77503 | 2023 ft | 171 kts | 265° |
| 2026-05-04 19:36 | 48.36214 | 11.75684 | 2950 ft | 179 kts | 264° |
| 2026-05-04 19:36 | 48.36071 | 11.73725 | 3330 ft | 199 kts | 263° |
| 2026-05-04 19:37 | 48.35911 | 11.71566 | 3705 ft | 217 kts | 263° |
| 2026-05-04 19:37 | 48.35747 | 11.69200 | 3986 ft | 238 kts | 268° |
| 2026-05-04 19:37 | 48.36178 | 11.66744 | 4432 ft | 256 kts | 299° |
| 2026-05-04 19:37 | 48.37131 | 11.64361 | 4905 ft | 275 kts | 301° |
| 2026-05-04 19:38 | 48.38154 | 11.61890 | 5682 ft | 280 kts | 301° |
| 2026-05-04 19:38 | 48.39191 | 11.59407 | 6557 ft | 281 kts | 300° |
| 2026-05-04 19:38 | 48.40227 | 11.56921 | 7398 ft | 281 kts | 300° |
| 2026-05-04 19:38 | 48.41277 | 11.54439 | 8244 ft | 282 kts | 300° |
| 2026-05-04 19:39 | 48.42554 | 11.52173 | 8970 ft | 291 kts | 319° |
| 2026-05-04 19:39 | 48.44376 | 11.50751 | 9701 ft | 300 kts | 337° |
| 2026-05-04 19:39 | 48.46352 | 11.49654 | 10300 ft | 310 kts | 336° |
| 2026-05-04 19:39 | 48.48450 | 11.48490 | 10497 ft | 333 kts | 337° |
| 2026-05-04 19:40 | 48.50669 | 11.47264 | 10924 ft | 344 kts | 337° |
| 2026-05-04 19:40 | 48.52934 | 11.46020 | 11551 ft | 349 kts | 337° |
| 2026-05-04 19:40 | 48.55235 | 11.44758 | 12222 ft | 353 kts | 337° |
| 2026-05-04 19:40 | 48.57556 | 11.43477 | 12886 ft | 357 kts | 337° |
| 2026-05-04 19:41 | 48.59900 | 11.42181 | 13549 ft | 361 kts | 337° |
| 2026-05-04 19:41 | 48.62269 | 11.40867 | 14146 ft | 365 kts | 337° |
| 2026-05-04 19:41 | 48.64662 | 11.39533 | 14746 ft | 368 kts | 337° |
| 2026-05-04 19:41 | 48.67069 | 11.38187 | 15339 ft | 370 kts | 337° |
| 2026-05-04 19:42 | 48.69484 | 11.36780 | 15947 ft | 372 kts | 332° |
| 2026-05-04 19:42 | 48.71702 | 11.34889 | 16516 ft | 371 kts | 323° |
| 2026-05-04 19:42 | 48.73849 | 11.32698 | 17115 ft | 374 kts | 323° |
| 2026-05-04 19:42 | 48.76014 | 11.30498 | 17703 ft | 376 kts | 323° |
| 2026-05-04 19:43 | 48.78194 | 11.28286 | 18282 ft | 378 kts | 323° |
| 2026-05-04 19:43 | 48.80380 | 11.26072 | 18767 ft | 381 kts | 324° |
| 2026-05-04 19:43 | 48.82774 | 11.24263 | 19227 ft | 388 kts | 338° |
| 2026-05-04 19:43 | 48.85321 | 11.22890 | 19694 ft | 391 kts | 338° |
| 2026-05-04 19:44 | 48.87906 | 11.21512 | 20188 ft | 394 kts | 338° |
| 2026-05-04 19:44 | 48.90505 | 11.20133 | 20665 ft | 397 kts | 338° |
| 2026-05-04 19:44 | 48.93122 | 11.18747 | 21127 ft | 400 kts | 338° |
| 2026-05-04 19:44 | 48.95761 | 11.17344 | 21584 ft | 403 kts | 338° |
| 2026-05-04 19:45 | 48.98413 | 11.15928 | 22042 ft | 406 kts | 338° |
| 2026-05-04 19:45 | 49.01086 | 11.14497 | 22516 ft | 409 kts | 338° |
| 2026-05-04 19:45 | 49.03780 | 11.13056 | 22973 ft | 411 kts | 338° |
| 2026-05-04 19:45 | 49.06493 | 11.11603 | 23415 ft | 414 kts | 338° |
| 2026-05-04 19:46 | 49.09222 | 11.10137 | 23794 ft | 417 kts | 338° |
| 2026-05-04 19:46 | 49.11965 | 11.08661 | 24189 ft | 419 kts | 338° |
| 2026-05-04 19:46 | 49.14720 | 11.07179 | 24572 ft | 421 kts | 338° |
| 2026-05-04 19:46 | 49.17496 | 11.05682 | 24959 ft | 424 kts | 338° |
| 2026-05-04 19:47 | 49.20291 | 11.04171 | 25351 ft | 426 kts | 338° |
| 2026-05-04 19:47 | 49.23087 | 11.02662 | 25765 ft | 428 kts | 338° |
| 2026-05-04 19:47 | 49.25900 | 11.01141 | 26156 ft | 429 kts | 337° |
| 2026-05-04 19:47 | 49.28722 | 10.99612 | 26528 ft | 431 kts | 337° |
| 2026-05-04 19:48 | 49.31560 | 10.98076 | 26895 ft | 433 kts | 337° |
| 2026-05-04 19:48 | 49.34409 | 10.96520 | 27254 ft | 435 kts | 335° |
| 2026-05-04 19:48 | 49.37121 | 10.94500 | 27607 ft | 433 kts | 325° |
| 2026-05-04 19:48 | 49.39565 | 10.91830 | 27960 ft | 431 kts | 316° |
| 2026-05-04 19:49 | 49.41689 | 10.88606 | 28322 ft | 429 kts | 307° |
| 2026-05-04 19:49 | 49.43573 | 10.85058 | 28668 ft | 430 kts | 306° |
| 2026-05-04 19:49 | 49.45460 | 10.81476 | 29028 ft | 432 kts | 306° |
| 2026-05-04 19:49 | 49.47356 | 10.77881 | 29428 ft | 434 kts | 305° |
| 2026-05-04 19:50 | 49.49260 | 10.74267 | 29765 ft | 436 kts | 305° |
| 2026-05-04 19:50 | 49.51175 | 10.70630 | 30084 ft | 438 kts | 305° |
| 2026-05-04 19:50 | 49.53096 | 10.66975 | 30372 ft | 440 kts | 305° |
| 2026-05-04 19:50 | 49.55023 | 10.63299 | 30656 ft | 442 kts | 305° |
| 2026-05-04 19:51 | 49.56960 | 10.59599 | 30932 ft | 444 kts | 305° |
| 2026-05-04 19:51 | 49.58901 | 10.55889 | 31194 ft | 445 kts | 305° |
| 2026-05-04 19:51 | 49.60845 | 10.52162 | 31445 ft | 447 kts | 305° |
| 2026-05-04 19:51 | 49.62794 | 10.48422 | 31713 ft | 448 kts | 305° |
| 2026-05-04 19:52 | 49.64750 | 10.44674 | 31932 ft | 448 kts | 305° |
| 2026-05-04 19:52 | 49.66636 | 10.40934 | 31969 ft | 433 kts | 302° |
| 2026-05-04 19:52 | 49.68364 | 10.37221 | 31969 ft | 420 kts | 300° |
| 2026-05-04 19:53 | 49.71555 | 10.29818 | 31973 ft | 415 kts | 298° |
| 2026-05-04 19:53 | 49.74722 | 10.22370 | 31980 ft | 414 kts | 299° |
| 2026-05-04 19:54 | 49.77940 | 10.14980 | 31972 ft | 413 kts | 300° |
| 2026-05-04 19:54 | 49.81173 | 10.07628 | 31975 ft | 413 kts | 300° |
| 2026-05-04 19:55 | 49.84427 | 10.00210 | 32004 ft | 413 kts | 299° |
| 2026-05-04 19:55 | 49.87644 | 9.92815 | 31994 ft | 414 kts | 299° |
| 2026-05-04 19:56 | 49.90864 | 9.85400 | 31989 ft | 414 kts | 299° |
| 2026-05-04 19:56 | 49.94076 | 9.77978 | 31984 ft | 414 kts | 299° |
| 2026-05-04 19:57 | 49.97287 | 9.70543 | 31994 ft | 415 kts | 299° |
| 2026-05-04 19:57 | 50.00500 | 9.63093 | 31997 ft | 415 kts | 299° |
| 2026-05-04 19:58 | 50.03710 | 9.55630 | 32007 ft | 415 kts | 299° |
| 2026-05-04 19:58 | 50.07126 | 9.48381 | 32007 ft | 420 kts | 309° |
| 2026-05-04 19:59 | 50.11607 | 9.42433 | 32002 ft | 424 kts | 316° |
| 2026-05-04 19:59 | 50.16207 | 9.36649 | 32004 ft | 425 kts | 316° |
| 2026-05-04 20:00 | 50.20798 | 9.30848 | 31997 ft | 425 kts | 316° |
| 2026-05-04 20:00 | 50.25377 | 9.25021 | 32006 ft | 425 kts | 316° |
| 2026-05-04 20:01 | 50.29954 | 9.19176 | 32025 ft | 425 kts | 316° |
| 2026-05-04 20:01 | 50.34622 | 9.13186 | 31998 ft | 444 kts | 316° |
| 2026-05-04 20:02 | 50.39488 | 9.06935 | 31997 ft | 460 kts | 316° |
| 2026-05-04 20:02 | 50.44467 | 9.00569 | 31995 ft | 463 kts | 316° |
| 2026-05-04 20:03 | 50.49457 | 8.94174 | 31997 ft | 463 kts | 316° |
| 2026-05-04 20:03 | 50.54451 | 8.87773 | 32008 ft | 463 kts | 317° |
| 2026-05-04 20:04 | 50.58693 | 8.82624 | 31997 ft | 463 kts | 318° |
| 2026-05-04 20:04 | 50.63860 | 8.76543 | 32001 ft | 464 kts | 318° |
| 2026-05-04 20:05 | 50.69013 | 8.70422 | 32004 ft | 464 kts | 318° |
| 2026-05-04 20:05 | 50.74134 | 8.64242 | 32009 ft | 463 kts | 317° |
| 2026-05-04 20:06 | 50.79234 | 8.58028 | 31637 ft | 462 kts | 317° |
| 2026-05-04 20:06 | 50.81800 | 8.54899 | 31383 ft | 468 kts | 317° |
| 2026-05-04 20:06 | 50.84380 | 8.51757 | 31134 ft | 468 kts | 318° |
| 2026-05-04 20:06 | 50.86963 | 8.48620 | 30874 ft | 467 kts | 318° |
| 2026-05-04 20:07 | 50.89540 | 8.45485 | 30380 ft | 467 kts | 318° |
| 2026-05-04 20:07 | 50.92109 | 8.42350 | 29826 ft | 465 kts | 318° |
| 2026-05-04 20:07 | 50.94665 | 8.39225 | 29328 ft | 462 kts | 318° |
| 2026-05-04 20:07 | 50.97199 | 8.36120 | 28828 ft | 459 kts | 318° |
| 2026-05-04 20:08 | 50.99730 | 8.33013 | 28349 ft | 463 kts | 318° |
| 2026-05-04 20:08 | 51.02361 | 8.30028 | 27998 ft | 468 kts | 326° |
| 2026-05-04 20:08 | 51.05181 | 8.27483 | 27409 ft | 464 kts | 327° |
| 2026-05-04 20:08 | 51.07980 | 8.24992 | 26724 ft | 459 kts | 327° |
| 2026-05-04 20:09 | 51.10750 | 8.22536 | 26065 ft | 454 kts | 327° |
| 2026-05-04 20:09 | 51.13492 | 8.20104 | 25414 ft | 449 kts | 327° |
| 2026-05-04 20:09 | 51.16199 | 8.17675 | 24783 ft | 443 kts | 324° |
| 2026-05-04 20:09 | 51.18567 | 8.14670 | 24143 ft | 431 kts | 310° |
| 2026-05-04 20:10 | 51.20337 | 8.10899 | 23492 ft | 421 kts | 298° |
| 2026-05-04 20:10 | 51.21861 | 8.06924 | 22726 ft | 418 kts | 298° |
| 2026-05-04 20:10 | 51.23344 | 8.03033 | 22003 ft | 414 kts | 298° |
| 2026-05-04 20:10 | 51.24830 | 7.99128 | 21261 ft | 407 kts | 298° |
| 2026-05-04 20:11 | 51.26277 | 7.95321 | 19958 ft | 398 kts | 298° |
| 2026-05-04 20:11 | 51.27699 | 7.91567 | 18667 ft | 392 kts | 298° |
| 2026-05-04 20:11 | 51.29098 | 7.87872 | 17271 ft | 385 kts | 298° |
| 2026-05-04 20:11 | 51.30472 | 7.84245 | 15934 ft | 378 kts | 298° |
| 2026-05-04 20:12 | 51.31814 | 7.80689 | 14637 ft | 370 kts | 298° |
| 2026-05-04 20:12 | 51.33127 | 7.77217 | 13759 ft | 354 kts | 298° |
| 2026-05-04 20:12 | 51.34346 | 7.74004 | 13415 ft | 323 kts | 298° |
| 2026-05-04 20:12 | 51.35474 | 7.71035 | 12920 ft | 304 kts | 297° |
| 2026-05-04 20:13 | 51.36550 | 7.68180 | 12166 ft | 296 kts | 297° |
| 2026-05-04 20:13 | 51.37599 | 7.65374 | 11364 ft | 293 kts | 297° |
| 2026-05-04 20:13 | 51.38443 | 7.62459 | 10556 ft | 285 kts | 279° |
| 2026-05-04 20:13 | 51.38775 | 7.59361 | 9762 ft | 280 kts | 274° |
| 2026-05-04 20:14 | 51.39017 | 7.56274 | 9070 ft | 281 kts | 274° |
| 2026-05-04 20:14 | 51.39251 | 7.53184 | 8712 ft | 277 kts | 274° |
| 2026-05-04 20:14 | 51.39481 | 7.50128 | 8337 ft | 275 kts | 274° |
| 2026-05-04 20:14 | 51.39709 | 7.47099 | 7960 ft | 273 kts | 274° |
| 2026-05-04 20:15 | 51.39938 | 7.44088 | 7563 ft | 272 kts | 274° |
| 2026-05-04 20:15 | 51.40165 | 7.41089 | 7203 ft | 270 kts | 274° |
| 2026-05-04 20:15 | 51.40389 | 7.38117 | 6845 ft | 268 kts | 274° |
| 2026-05-04 20:15 | 51.40611 | 7.35160 | 6488 ft | 267 kts | 274° |
| 2026-05-04 20:16 | 51.40832 | 7.32229 | 6104 ft | 263 kts | 274° |
| 2026-05-04 20:16 | 51.41060 | 7.29341 | 5985 ft | 264 kts | 277° |
| 2026-05-04 20:16 | 51.41792 | 7.26629 | 5846 ft | 270 kts | 304° |
| 2026-05-04 20:16 | 51.43192 | 7.24601 | 5451 ft | 273 kts | 322° |
| 2026-05-04 20:17 | 51.44749 | 7.22887 | 5208 ft | 267 kts | 323° |
| 2026-05-04 20:17 | 51.46117 | 7.21024 | 5085 ft | 251 kts | 304° |
| 2026-05-04 20:17 | 51.46889 | 7.18624 | 4933 ft | 236 kts | 282° |
| 2026-05-04 20:17 | 51.47019 | 7.16071 | 4645 ft | 228 kts | 259° |
| 2026-05-04 20:18 | 51.46530 | 7.13697 | 4363 ft | 220 kts | 241° |
| 2026-05-04 20:18 | 51.45757 | 7.11681 | 4251 ft | 205 kts | 233° |
| 2026-05-04 20:18 | 51.44941 | 7.09898 | 4113 ft | 193 kts | 232° |
| 2026-05-04 20:18 | 51.44159 | 7.08231 | 3990 ft | 181 kts | 231° |
| 2026-05-04 20:19 | 51.43427 | 7.06676 | 3806 ft | 172 kts | 231° |
| 2026-05-04 20:19 | 51.42709 | 7.05153 | 3489 ft | 171 kts | 231° |
| 2026-05-04 20:19 | 51.41993 | 7.03632 | 3157 ft | 171 kts | 231° |
| 2026-05-04 20:19 | 51.41278 | 7.02115 | 3014 ft | 171 kts | 231° |
| 2026-05-04 20:20 | 51.40559 | 7.00590 | 3017 ft | 172 kts | 231° |
| 2026-05-04 20:20 | 51.39834 | 6.99054 | 3013 ft | 173 kts | 231° |
| 2026-05-04 20:20 | 51.39111 | 6.97522 | 3015 ft | 173 kts | 231° |
| 2026-05-04 20:20 | 51.38381 | 6.95978 | 2922 ft | 174 kts | 231° |
| 2026-05-04 20:21 | 51.37654 | 6.94440 | 2735 ft | 173 kts | 231° |
| 2026-05-04 20:21 | 51.36931 | 6.92911 | 2519 ft | 172 kts | 231° |
| 2026-05-04 20:21 | 51.35503 | 6.89892 | 2076 ft | 170 kts | 231° |
| 2026-05-04 20:22 | 51.34793 | 6.88394 | 1830 ft | 169 kts | 231° |
| 2026-05-04 20:22 | 51.34098 | 6.86927 | 1600 ft | 157 kts | 231° |
| 2026-05-04 20:22 | 51.33472 | 6.85605 | 1390 ft | 145 kts | 230° |
| 2026-05-04 20:22 | 51.32877 | 6.84354 | 1204 ft | 139 kts | 230° |
| 2026-05-04 20:23 | 51.32293 | 6.83123 | 1022 ft | 139 kts | 231° |
| 2026-05-04 20:23 | 51.31722 | 6.81916 | 829 ft | 138 kts | 231° |
| 2026-05-04 20:23 | 51.31154 | 6.80680 | 653 ft | 135 kts | 231° |
| 2026-05-04 20:23 | 51.30582 | 6.79498 | 480 ft | 136 kts | 233° |
| 2026-05-04 20:24 | 51.30011 | 6.78307 | 289 ft | 135 kts | 230° |
| 2026-05-04 20:24 | 51.29449 | 6.77130 | 143 ft | 126 kts | 230° |
| 2026-05-04 20:24 | 51.28993 | 6.76186 | 137 ft | 74 kts | 232° |
| 2026-05-04 20:24 | 51.28815 | 6.75826 | 134 ft | 31 kts | 223° |
| 2026-05-04 20:25 | 51.28654 | 6.75684 | 135 ft | 23 kts | 193° |
| 2026-05-04 20:25 | 51.28537 | 6.75708 | 137 ft | 8 kts | 163° |
| 2026-05-04 20:25 | 51.28488 | 6.75747 | 137 ft | 8 kts | 148° |
| 2026-05-04 20:25 | 51.28449 | 6.75791 | 136 ft | 3 kts | 143° |
| 2026-05-04 20:26 | 51.28434 | 6.75809 | 136 ft | 3 kts | 142° |
| 2026-05-04 20:26 | 51.28411 | 6.75838 | 136 ft | 5 kts | 143° |
| 2026-05-04 20:26 | 51.28407 | 6.75843 | 136 ft | 0 kts | 143° |
| 2026-05-04 20:27 | 51.28402 | 6.75849 | 108 ft | 3 kts | 143° |
| 2026-05-04 20:27 | 51.28355 | 6.75906 | 133 ft | 13 kts | 142° |
| 2026-05-04 20:27 | 51.28275 | 6.75990 | 135 ft | 13 kts | 168° |
| 2026-05-04 20:27 | 51.28190 | 6.75947 | 136 ft | 13 kts | 206° |
| 2026-05-04 20:28 | 51.28149 | 6.75915 | 137 ft | 0 kts | 205° |
| 2026-05-04 20:28 | 51.28148 | 6.75914 | 137 ft | 1 kts | 205° |
| 2026-05-04 20:28 | 51.28128 | 6.75900 | 137 ft | 5 kts | 205° |
| 2026-05-04 20:28 | 51.28090 | 6.75872 | 137 ft | 7 kts | 204° |
| 2026-05-04 20:29 | 51.28025 | 6.75830 | 137 ft | 13 kts | 193° |
| 2026-05-04 20:29 | 51.27933 | 6.75821 | 137 ft | 13 kts | 182° |
| 2026-05-04 20:29 | 51.27867 | 6.75828 | 137 ft | 10 kts | 157° |
| 2026-05-04 20:29 | 51.27843 | 6.75935 | 137 ft | 12 kts | 92° |
| 2026-05-04 20:30 | 51.27842 | 6.76076 | 137 ft | 14 kts | 91° |
| 2026-05-04 20:30 | 51.27841 | 6.76194 | 137 ft | 8 kts | 91° |
| 2026-05-04 20:30 | 51.27861 | 6.76279 | 137 ft | 9 kts | 51° |
| 2026-05-04 20:30 | 51.27881 | 6.76318 | 137 ft | 2 kts | 50° |
| 2026-05-04 20:31 | 51.27885 | 6.76324 | 137 ft | 0 kts | 50° |